createdAt,value
2022-11-09T00:01:30.254Z,3.50
2022-11-09T00:04:00.234Z,4.20
2022-11-09T00:06:29.948Z,3.70
2022-11-09T00:09:04.111Z,3.70
2022-11-09T00:11:38.235Z,3.50
2022-11-09T00:14:07.203Z,3.70
2022-11-09T00:16:35.691Z,4.05
2022-11-09T00:19:04.280Z,4.78
2022-11-09T00:21:33.021Z,4.60
2022-11-09T00:24:01.639Z,4.13
2022-11-09T00:26:30.233Z,4.90
2022-11-09T00:29:00.123Z,4.35
2022-11-09T00:31:28.630Z,4.55
2022-11-09T00:33:58.835Z,4.53
2022-11-09T00:36:29.138Z,4.65
2022-11-09T00:38:59.706Z,5.53
2022-11-09T00:41:28.854Z,4.65
2022-11-09T00:43:58.846Z,5.38
2022-11-09T00:46:27.754Z,3.80
2022-11-09T00:48:56.831Z,4.05
2022-11-09T00:51:25.982Z,4.78
2022-11-09T00:53:55.406Z,4.68
2022-11-09T00:56:24.770Z,5.13
2022-11-09T00:58:55.784Z,5.75
2022-11-09T01:01:26.042Z,6.95
2022-11-09T01:03:54.726Z,7.68
2022-11-09T01:06:25.020Z,5.80
2022-11-09T01:08:54.218Z,8.25
2022-11-09T01:11:23.831Z,7.68
2022-11-09T01:13:54.880Z,8.18
2022-11-09T01:16:25.627Z,10.15
2022-11-09T01:18:55.999Z,10.57
2022-11-09T01:21:27.461Z,12.82
2022-11-09T01:23:56.508Z,15.35
2022-11-09T01:26:25.187Z,11.55
2022-11-09T01:28:53.868Z,13.40
2022-11-09T01:31:23.705Z,15.23
2022-11-09T01:33:53.350Z,13.18
2022-11-09T01:36:24.848Z,14.23
2022-11-09T01:38:53.702Z,12.50
2022-11-09T01:41:24.720Z,10.88
2022-11-09T01:44:12.596Z,9.57
2022-11-09T01:46:53.003Z,11.82
2022-11-09T01:49:40.814Z,11.82
2022-11-09T01:52:14.215Z,14.35
2022-11-09T01:54:49.059Z,13.18
2022-11-09T01:57:23.059Z,15.18
2022-11-09T02:00:00.608Z,13.13
2022-11-09T02:02:29.412Z,12.68
2022-11-09T02:05:02.768Z,11.55
2022-11-09T02:07:31.599Z,8.63
2022-11-09T02:10:08.097Z,10.20
2022-11-09T02:12:37.551Z,9.63
2022-11-09T02:15:11.433Z,7.65
2022-11-09T02:17:40.912Z,8.52
2022-11-09T02:20:13.668Z,8.23
2022-11-09T02:22:42.896Z,9.77
2022-11-09T02:25:13.556Z,9.27
2022-11-09T02:27:43.641Z,8.07
2022-11-09T02:30:13.541Z,8.35
2022-11-09T02:32:41.894Z,7.65
2022-11-09T02:35:12.285Z,8.68
2022-11-09T02:37:45.695Z,9.50
2022-11-09T02:40:21.687Z,10.02
2022-11-09T02:42:50.528Z,11.50
2022-11-09T02:45:19.379Z,10.15
2022-11-09T02:47:47.993Z,11.20
2022-11-09T02:50:18.132Z,10.80
2022-11-09T02:52:46.775Z,11.70
2022-11-09T02:55:15.757Z,12.25
2022-11-09T02:57:44.883Z,12.15
2022-11-09T03:00:16.518Z,12.25
2022-11-09T03:02:46.100Z,10.70
2022-11-09T03:05:18.300Z,9.55
2022-11-09T03:07:47.484Z,9.48
2022-11-09T03:10:16.238Z,10.20
2022-11-09T03:12:44.676Z,9.40
2022-11-09T03:15:15.923Z,9.48
2022-11-09T03:17:47.641Z,11.23
2022-11-09T03:20:18.591Z,10.82
2022-11-09T03:22:46.886Z,11.40
2022-11-09T03:25:15.639Z,17.88
2022-11-09T03:27:44.646Z,12.75
2022-11-09T03:30:14.812Z,14.73
2022-11-09T03:32:48.014Z,12.52
2022-11-09T03:35:20.094Z,14.50
2022-11-09T03:37:48.965Z,16.13
2022-11-09T03:40:18.237Z,15.52
2022-11-09T03:43:35.081Z,12.98
2022-11-09T03:46:03.665Z,14.70
2022-11-09T03:48:31.932Z,14.93
2022-11-09T03:51:01.656Z,12.52
2022-11-09T03:53:29.914Z,14.98
2022-11-09T03:55:58.970Z,13.07
2022-11-09T03:58:27.549Z,13.73
2022-11-09T04:00:55.894Z,13.43
2022-11-09T04:03:24.161Z,17.33
2022-11-09T04:05:52.474Z,12.05
2022-11-09T04:08:22.111Z,16.15
2022-11-09T04:10:50.431Z,10.65
2022-11-09T04:13:19.111Z,17.25
2022-11-09T04:15:47.643Z,15.40
2022-11-09T04:18:17.839Z,15.40
2022-11-09T04:20:46.446Z,14.65
2022-11-09T04:23:16.094Z,12.82
2022-11-09T04:25:46.084Z,15.90
2022-11-09T04:28:20.091Z,13.07
2022-11-09T04:30:48.734Z,18.17
2022-11-09T04:33:17.579Z,13.43
2022-11-09T04:35:46.367Z,14.18
2022-11-09T04:38:16.066Z,13.18
2022-11-09T04:40:45.760Z,13.63
2022-11-09T04:43:15.983Z,13.02
2022-11-09T04:45:44.574Z,18.20
2022-11-09T04:48:13.210Z,12.57
2022-11-09T04:50:41.873Z,17.88
2022-11-09T04:53:12.669Z,16.25
2022-11-09T04:55:42.487Z,15.15
2022-11-09T04:58:12.662Z,18.00
2022-11-09T05:00:40.934Z,13.73
2022-11-09T05:03:09.682Z,16.38
2022-11-09T05:05:44.050Z,17.17
2022-11-09T05:08:15.635Z,19.15
2022-11-09T05:10:44.769Z,22.15
2022-11-09T05:13:14.959Z,15.05
2022-11-09T05:15:43.565Z,21.33
2022-11-09T05:18:12.159Z,20.08
2022-11-09T05:20:40.672Z,19.13
2022-11-09T05:23:26.548Z,23.48
2022-11-09T05:25:54.871Z,22.83
2022-11-09T05:28:24.495Z,24.98
2022-11-09T05:30:52.755Z,20.58
2022-11-09T05:33:21.690Z,21.58
2022-11-09T05:35:50.533Z,21.92
2022-11-09T05:38:19.256Z,18.60
2022-11-09T05:40:49.478Z,23.05
2022-11-09T05:43:17.933Z,19.35
2022-11-09T05:45:48.099Z,21.63
2022-11-09T05:48:18.071Z,21.08
2022-11-09T05:50:46.616Z,24.00
2022-11-09T05:53:33.732Z,20.98
2022-11-09T05:56:07.535Z,21.77
2022-11-09T05:58:38.652Z,21.58
2022-11-09T06:01:11.302Z,26.08
2022-11-09T06:03:44.415Z,24.00
2022-11-09T06:06:15.684Z,29.05
2022-11-09T06:08:44.430Z,23.88
2022-11-09T06:11:19.872Z,23.13
2022-11-09T06:13:52.532Z,31.52
2022-11-09T06:16:22.297Z,24.55
2022-11-09T06:18:51.007Z,18.85
2022-11-09T06:21:19.589Z,23.13
2022-11-09T06:23:48.165Z,20.75
2022-11-09T06:26:17.268Z,19.90
2022-11-09T06:28:45.856Z,20.08
2022-11-09T06:31:16.841Z,23.08
2022-11-09T06:33:46.687Z,22.10
2022-11-09T06:36:15.474Z,18.30
2022-11-09T06:38:43.948Z,19.58
2022-11-09T06:41:12.746Z,15.65
2022-11-09T06:43:41.523Z,18.23
2022-11-09T06:46:11.349Z,26.98
2022-11-09T06:48:40.307Z,26.52
2022-11-09T06:51:11.237Z,21.58
2022-11-09T06:53:41.405Z,17.50
2022-11-09T06:56:10.188Z,15.80
2022-11-09T06:58:38.823Z,18.27
2022-11-09T07:01:11.242Z,16.05
2022-11-09T07:03:40.521Z,17.02
2022-11-09T07:06:12.518Z,12.52
2022-11-09T07:08:41.834Z,15.73
2022-11-09T07:11:13.334Z,12.77
2022-11-09T07:13:41.709Z,14.05
2022-11-09T07:16:11.954Z,12.05
2022-11-09T07:18:40.310Z,13.82
2022-11-09T07:21:13.980Z,12.13
2022-11-09T07:23:43.389Z,11.88
2022-11-09T07:26:11.994Z,11.60
2022-11-09T07:28:40.787Z,11.98
2022-11-09T07:31:09.399Z,10.73
2022-11-09T07:33:37.968Z,11.02
2022-11-09T07:36:07.787Z,10.07
2022-11-09T07:38:37.388Z,10.73
2022-11-09T07:41:05.914Z,8.80
2022-11-09T07:43:34.149Z,10.32
2022-11-09T07:46:05.924Z,8.20
2022-11-09T07:48:34.562Z,7.03
2022-11-09T07:51:03.567Z,7.35
2022-11-09T07:53:32.324Z,8.55
2022-11-09T07:56:04.338Z,7.85
2022-11-09T07:58:34.241Z,6.35
2022-11-09T08:01:02.532Z,6.22
2022-11-09T08:03:30.732Z,7.22
2022-11-09T08:05:59.098Z,7.13
2022-11-09T08:08:27.337Z,5.15
2022-11-09T08:10:58.496Z,6.13
2022-11-09T08:13:28.159Z,5.90
2022-11-09T08:15:56.739Z,6.03
2022-11-09T08:18:25.110Z,7.47
2022-11-09T08:20:53.361Z,5.47
2022-11-09T08:23:22.590Z,5.68
2022-11-09T08:25:51.735Z,6.65
2022-11-09T08:28:20.362Z,6.30
2022-11-09T08:30:57.588Z,5.70
2022-11-09T08:33:27.397Z,6.18
2022-11-09T08:35:56.362Z,6.68
2022-11-09T08:38:24.770Z,6.50
2022-11-09T08:40:58.776Z,5.97
2022-11-09T08:43:27.528Z,5.88
2022-11-09T08:45:57.202Z,5.30
2022-11-09T08:48:25.840Z,6.75
2022-11-09T08:50:55.816Z,6.90
2022-11-09T08:53:24.989Z,5.70
2022-11-09T08:55:53.774Z,6.45
2022-11-09T08:58:22.909Z,6.18
2022-11-09T09:00:51.442Z,5.65
2022-11-09T09:03:21.084Z,5.10
2022-11-09T09:05:49.274Z,6.00
2022-11-09T09:08:21.885Z,7.28
2022-11-09T09:10:50.970Z,6.00
2022-11-09T09:13:22.534Z,4.97
2022-11-09T09:15:51.466Z,4.65
2022-11-09T09:18:21.556Z,4.80
2022-11-09T09:20:50.423Z,4.40
2022-11-09T09:23:19.257Z,3.67
2022-11-09T09:25:48.303Z,3.30
2022-11-09T09:28:16.565Z,3.50
2022-11-09T09:30:45.186Z,3.15
2022-11-09T09:33:13.385Z,3.50
2022-11-09T09:35:43.033Z,2.33
2022-11-09T09:38:11.373Z,3.63
2022-11-09T09:40:49.617Z,3.30
2022-11-09T09:43:27.881Z,3.20
2022-11-09T09:45:57.026Z,4.32
2022-11-09T09:48:36.734Z,4.45
2022-11-09T09:51:14.586Z,3.13
2022-11-09T09:53:48.773Z,3.42
2022-11-09T09:56:21.845Z,4.32
2022-11-09T09:58:57.797Z,4.65
2022-11-09T10:01:36.122Z,4.57
2022-11-09T10:04:04.723Z,4.47
2022-11-09T10:06:49.490Z,3.80
2022-11-09T10:09:33.066Z,3.85
2022-11-09T10:12:12.216Z,2.60
2022-11-09T10:15:07.434Z,2.28
2022-11-09T10:17:50.227Z,2.60
2022-11-09T10:20:52.912Z,1.77
2022-11-09T10:23:44.796Z,1.90
2022-11-09T10:26:19.979Z,1.90
2022-11-09T10:31:47.899Z,1.70
2022-11-09T10:34:20.768Z,1.73
2022-11-09T10:37:04.436Z,2.90
2022-11-09T10:39:45.339Z,2.00
2022-11-09T10:42:32.591Z,3.20
2022-11-09T10:45:30.475Z,2.80
2022-11-09T10:48:33.261Z,2.70
2022-11-09T10:51:40.579Z,2.08
2022-11-09T10:54:31.194Z,1.75
2022-11-09T10:57:22.905Z,1.40
2022-11-09T11:00:17.593Z,1.52
2022-11-09T11:03:16.459Z,1.95
2022-11-09T11:06:05.882Z,1.83
2022-11-09T11:09:14.519Z,1.58
2022-11-09T11:12:16.245Z,1.50
2022-11-09T11:15:04.842Z,1.17
2022-11-09T11:18:01.166Z,0.65
2022-11-09T11:20:48.726Z,0.80
2022-11-09T11:23:36.966Z,0.80
2022-11-09T11:26:35.570Z,1.23
2022-11-09T11:29:38.632Z,0.90
2022-11-09T11:32:27.320Z,0.77
2022-11-09T11:35:16.605Z,1.25
2022-11-09T11:38:21.151Z,1.83
2022-11-09T11:41:31.695Z,0.80
2022-11-09T11:44:42.874Z,1.17
2022-11-09T11:47:43.024Z,1.00
2022-11-09T11:50:42.239Z,0.88
2022-11-09T11:53:48.883Z,1.42
2022-11-09T11:56:43.271Z,0.88
2022-11-09T11:59:56.896Z,1.50
2022-11-09T12:03:14.227Z,0.70
2022-11-09T12:06:44.326Z,1.20
2022-11-09T12:09:54.582Z,1.50
2022-11-09T12:12:53.701Z,0.52
2022-11-09T12:15:53.201Z,0.77
2022-11-09T12:18:56.706Z,0.90
2022-11-09T12:21:52.543Z,0.85
2022-11-09T12:24:47.762Z,1.00
2022-11-09T12:28:07.535Z,1.60
2022-11-09T12:31:10.298Z,0.90
2022-11-09T12:34:04.544Z,0.80
2022-11-09T12:36:56.655Z,0.70
2022-11-09T12:39:47.436Z,1.20
2022-11-09T12:42:44.481Z,1.40
2022-11-09T12:45:35.327Z,0.75
2022-11-09T12:48:25.748Z,1.17
2022-11-09T12:51:14.234Z,1.02
2022-11-09T12:54:03.008Z,1.40
2022-11-09T12:56:56.288Z,1.15
2022-11-09T13:00:30.225Z,1.05
2022-11-09T13:03:27.461Z,1.15
2022-11-09T13:06:20.632Z,1.65
2022-11-09T13:09:20.471Z,1.52
2022-11-09T13:12:19.416Z,0.93
2022-11-09T13:15:27.862Z,1.02
2022-11-09T13:18:27.275Z,1.20
2022-11-09T13:21:40.467Z,1.00
2022-11-09T13:24:56.397Z,1.30
2022-11-09T13:27:45.654Z,1.45
2022-11-09T13:30:43.846Z,2.13
2022-11-09T13:33:31.707Z,0.73
2022-11-09T13:36:22.390Z,1.00
2022-11-09T13:39:31.806Z,0.98
2022-11-09T13:42:34.668Z,1.20
2022-11-09T13:45:30.437Z,0.80
2022-11-09T13:48:35.118Z,0.60
2022-11-09T13:51:26.859Z,1.80
2022-11-09T13:57:10.113Z,0.98
2022-11-09T14:00:00.801Z,0.93
2022-11-09T14:02:55.896Z,0.73
2022-11-09T14:05:45.310Z,1.20
2022-11-09T14:08:40.394Z,1.17
2022-11-09T14:11:55.868Z,1.08
2022-11-09T14:15:08.765Z,1.10
2022-11-09T14:18:11.991Z,0.88
2022-11-09T14:21:14.363Z,1.30
2022-11-09T14:24:04.898Z,1.20
2022-11-09T14:27:16.806Z,1.13
2022-11-09T14:30:20.386Z,1.20
2022-11-09T14:33:23.093Z,0.77
2022-11-09T14:36:13.937Z,0.60
2022-11-09T14:39:03.524Z,0.90
2022-11-09T14:41:51.609Z,0.82
2022-11-09T14:44:43.836Z,0.90
2022-11-09T14:47:35.259Z,1.63
2022-11-09T14:50:25.955Z,1.33
2022-11-09T14:53:18.995Z,1.48
2022-11-09T14:56:09.199Z,1.08
2022-11-09T14:58:58.191Z,0.90
2022-11-09T15:01:59.895Z,0.98
2022-11-09T15:04:56.891Z,1.30
2022-11-09T15:07:48.035Z,3.10
2022-11-09T15:10:36.019Z,1.77
2022-11-09T15:13:32.626Z,1.42
2022-11-09T15:16:24.145Z,1.55
2022-11-09T15:19:31.579Z,1.25
2022-11-09T15:22:48.000Z,1.38
2022-11-09T15:25:37.793Z,1.27
2022-11-09T15:28:27.400Z,0.68
2022-11-09T15:31:18.804Z,1.38
2022-11-09T15:34:23.799Z,1.08
2022-11-09T15:37:28.240Z,1.50
2022-11-09T15:40:21.564Z,1.40
2022-11-09T15:43:08.464Z,1.17
2022-11-09T15:45:56.493Z,1.30
2022-11-09T15:48:46.346Z,1.67
2022-11-09T15:51:33.880Z,1.00
2022-11-09T15:54:22.029Z,1.00
2022-11-09T15:57:18.672Z,0.50
2022-11-09T16:00:11.342Z,0.50
2022-11-09T16:03:01.161Z,0.95
2022-11-09T16:05:48.703Z,0.75
2022-11-09T16:08:35.308Z,0.82
2022-11-09T16:11:22.106Z,0.90
2022-11-09T16:14:10.461Z,0.95
2022-11-09T16:16:57.675Z,0.70
2022-11-09T16:19:44.359Z,0.65
2022-11-09T16:22:32.824Z,0.50
2022-11-09T16:25:20.378Z,0.95
2022-11-09T16:28:07.511Z,0.93
2022-11-09T16:30:55.847Z,0.75
2022-11-09T16:33:43.247Z,0.85
2022-11-09T16:36:31.201Z,0.60
2022-11-09T16:39:18.575Z,0.85
2022-11-09T16:42:10.145Z,0.57
2022-11-09T16:45:01.429Z,0.70
2022-11-09T16:47:53.799Z,0.60
2022-11-09T16:50:40.833Z,0.75
2022-11-09T16:53:27.854Z,0.70
2022-11-09T16:56:14.863Z,1.35
2022-11-09T16:59:02.423Z,2.80
2022-11-09T17:01:53.486Z,0.57
2022-11-09T17:04:42.252Z,1.48
2022-11-09T17:07:29.770Z,2.20
2022-11-09T17:10:17.216Z,1.08
2022-11-09T17:13:04.427Z,1.10
2022-11-09T17:15:53.338Z,1.42
2022-11-09T17:18:40.563Z,1.25
2022-11-09T17:21:30.349Z,1.50
2022-11-09T17:24:17.840Z,1.27
2022-11-09T17:27:04.857Z,1.20
2022-11-09T17:29:52.708Z,1.13
2022-11-09T17:32:41.003Z,1.52
2022-11-09T17:35:28.339Z,1.33
2022-11-09T17:38:16.707Z,1.48
2022-11-09T17:41:05.126Z,0.80
2022-11-09T17:43:51.944Z,0.80
2022-11-09T17:46:39.029Z,0.80
2022-11-09T17:49:26.217Z,0.90
2022-11-09T17:52:13.030Z,1.10
2022-11-09T17:55:01.654Z,0.98
2022-11-09T17:57:48.642Z,1.30
2022-11-09T18:00:35.436Z,1.10
2022-11-09T18:03:23.077Z,1.17
2022-11-09T18:06:13.217Z,1.35
2022-11-09T18:09:34.451Z,1.13
2022-11-09T18:12:09.182Z,1.27
2022-11-09T18:14:56.119Z,1.20
2022-11-09T18:17:43.855Z,1.17
2022-11-09T18:20:30.802Z,1.10
2022-11-09T18:23:18.134Z,1.50
2022-11-09T18:26:06.229Z,1.50
2022-11-09T18:28:56.404Z,1.38
2022-11-09T18:31:43.349Z,1.20
2022-11-09T18:34:30.511Z,1.40
2022-11-09T18:37:17.576Z,1.05
2022-11-09T18:40:05.070Z,1.30
2022-11-09T18:42:52.033Z,1.13
2022-11-09T18:45:40.299Z,1.20
2022-11-09T18:48:27.986Z,2.50
2022-11-09T18:51:14.887Z,2.05
2022-11-09T18:54:01.944Z,1.38
2022-11-09T18:56:49.190Z,1.83
2022-11-09T18:59:39.978Z,1.55
2022-11-09T19:02:28.419Z,1.45
2022-11-09T19:05:15.746Z,1.52
2022-11-09T19:08:02.447Z,2.00
2022-11-09T19:10:49.524Z,1.65
2022-11-09T19:13:36.818Z,1.95
2022-11-09T19:16:25.237Z,1.42
2022-11-09T19:19:15.880Z,1.13
2022-11-09T19:22:02.793Z,1.50
2022-11-09T19:24:50.166Z,1.45
2022-11-09T19:27:37.185Z,1.55
2022-11-09T19:30:25.812Z,1.65
2022-11-09T19:33:12.933Z,1.88
2022-11-09T19:36:28.510Z,1.67
2022-11-09T19:39:08.577Z,1.70
2022-11-09T19:41:55.997Z,2.22
2022-11-09T19:44:43.118Z,1.70
2022-11-09T19:47:30.075Z,1.65
2022-11-09T19:50:17.476Z,1.70
2022-11-09T19:53:05.327Z,2.00
2022-11-09T19:55:52.391Z,1.05
2022-11-09T19:58:39.554Z,2.42
2022-11-09T20:01:27.373Z,1.40
2022-11-09T20:04:14.151Z,1.33
2022-11-09T20:07:01.431Z,1.58
2022-11-09T20:09:49.753Z,2.30
2022-11-09T20:12:51.900Z,1.85
2022-11-09T20:15:38.947Z,1.77
2022-11-09T20:18:26.382Z,1.60
2022-11-09T20:21:13.272Z,3.17
2022-11-09T20:24:00.297Z,1.50
2022-11-09T20:26:48.356Z,2.03
2022-11-09T20:29:35.850Z,1.10
2022-11-09T20:32:23.772Z,1.50
2022-11-09T20:35:10.898Z,1.63
2022-11-09T20:37:58.157Z,1.38
2022-11-09T20:40:45.266Z,1.42
2022-11-09T20:43:33.587Z,1.83
2022-11-09T20:46:24.459Z,1.52
2022-11-09T20:49:11.966Z,1.65
2022-11-09T20:51:59.411Z,1.88
2022-11-09T20:54:46.136Z,1.70
2022-11-09T20:57:33.155Z,2.15
2022-11-09T21:00:24.516Z,2.35
2022-11-09T21:03:11.838Z,1.65
2022-11-09T21:05:59.396Z,1.70
2022-11-09T21:08:47.445Z,1.83
2022-11-09T21:11:57.300Z,2.00
2022-11-09T21:14:44.465Z,1.92
2022-11-09T21:17:33.093Z,1.90
2022-11-09T21:20:20.048Z,1.85
2022-11-09T21:23:25.267Z,2.22
2022-11-09T21:26:29.860Z,1.80
2022-11-09T21:29:37.537Z,1.50
2022-11-09T21:32:25.093Z,1.40
2022-11-09T21:35:13.162Z,1.52
2022-11-09T21:38:00.131Z,2.10
2022-11-09T21:40:47.001Z,1.90
2022-11-09T21:43:34.065Z,1.90
2022-11-09T21:46:20.951Z,1.40
2022-11-09T21:49:10.207Z,1.95
2022-11-09T21:51:58.820Z,1.42
2022-11-09T21:54:45.986Z,2.00
2022-11-09T21:57:32.922Z,1.80
2022-11-09T22:00:20.348Z,1.50
2022-11-09T22:03:07.381Z,1.98
2022-11-09T22:05:54.089Z,2.00
2022-11-09T22:08:42.701Z,1.67
2022-11-09T22:11:43.768Z,1.63
2022-11-09T22:14:47.817Z,3.00
2022-11-09T22:17:34.708Z,4.03
2022-11-09T22:20:39.363Z,2.47
2022-11-09T22:23:26.561Z,2.30
2022-11-09T22:26:14.862Z,2.40
2022-11-09T22:29:02.170Z,1.90
2022-11-09T22:31:49.102Z,2.30
2022-11-09T22:34:36.095Z,2.58
2022-11-09T22:37:23.043Z,4.70
2022-11-09T22:40:11.305Z,5.55
2022-11-09T22:42:59.393Z,2.95
2022-11-09T22:45:46.416Z,3.22
2022-11-09T22:48:33.578Z,2.42
2022-11-09T22:51:20.943Z,2.25
2022-11-09T22:54:08.588Z,2.35
2022-11-09T22:56:55.826Z,1.98
2022-11-09T22:59:43.654Z,2.70
2022-11-09T23:02:30.793Z,2.50
2022-11-09T23:05:18.183Z,2.65
2022-11-09T23:08:05.782Z,2.28
2022-11-09T23:10:55.917Z,2.22
2022-11-09T23:13:43.475Z,2.03
2022-11-09T23:16:31.612Z,2.38
2022-11-09T23:19:17.695Z,2.03
2022-11-09T23:22:04.909Z,3.10
2022-11-09T23:25:09.270Z,2.00
2022-11-09T23:27:56.804Z,1.88
2022-11-09T23:30:44.132Z,2.83
2022-11-09T23:33:32.267Z,2.58
2022-11-09T23:36:19.678Z,2.03
2022-11-09T23:39:07.050Z,2.53
2022-11-09T23:41:53.959Z,2.05
2022-11-09T23:44:40.573Z,2.15
2022-11-09T23:47:27.684Z,2.00
2022-11-09T23:50:15.939Z,2.35
2022-11-09T23:53:03.065Z,2.35
2022-11-09T23:55:50.381Z,2.88
2022-11-09T23:58:37.788Z,2.40
